Terminal Aerodrome Forecast
Issued by NWS Columbia, SC

Home | Current Version | Previous Version | Text Only | Print | Product List | Glossary On
Versions: 1 2 3 4 5 6 7 8 9 10 11 12 13 14 15 16 17 18 19 20 21 22 23 24 25 26 27 28 29 30 31 32
000
FTUS42 KCAE 200236 AAA
TAFCAE
TAF AMD
KCAE 200236Z 2003/2024 VRB05KT P6SM SCT150
     FM200600 VRB03KT 1/2SM FG VV003
     FM201500 VRB04KT 2SM BR BKN008
     FM201700 18006KT P6SM BKN015
     FM202000 17006KT P6SM BKN035=

USA.gov is the U.S. government's official web portal to all federal, state and local government web resources and services.